createdAt,value
2018-03-26T00:01:13.705Z,16.87
2018-03-26T00:03:39.722Z,16.90
2018-03-26T00:06:05.733Z,18.03
2018-03-26T00:08:31.756Z,16.37
2018-03-26T00:10:57.765Z,16.93
2018-03-26T00:13:23.838Z,17.40
2018-03-26T00:15:49.849Z,19.20
2018-03-26T00:18:16.010Z,17.70
2018-03-26T00:20:42.013Z,16.40
2018-03-26T00:23:08.050Z,17.93
2018-03-26T00:25:34.068Z,17.50
2018-03-26T00:28:00.046Z,18.80
2018-03-26T00:30:26.092Z,17.80
2018-03-26T00:32:52.132Z,18.37
2018-03-26T00:35:18.084Z,18.23
2018-03-26T00:37:44.120Z,19.53
2018-03-26T00:40:10.161Z,20.43
2018-03-26T00:42:36.142Z,18.70
2018-03-26T00:45:02.198Z,19.20
2018-03-26T00:47:28.222Z,17.07
2018-03-26T00:49:54.243Z,19.50
2018-03-26T00:52:20.329Z,19.87
2018-03-26T00:54:46.346Z,18.90
2018-03-26T00:57:12.338Z,18.73
2018-03-26T00:59:38.358Z,18.67
2018-03-26T01:02:04.364Z,18.87
2018-03-26T01:04:30.384Z,17.87
2018-03-26T01:06:56.644Z,16.20
2018-03-26T01:09:22.669Z,16.30
2018-03-26T01:11:48.689Z,15.93
2018-03-26T01:14:14.753Z,15.40
2018-03-26T01:16:40.777Z,16.07
2018-03-26T01:19:06.801Z,16.10
2018-03-26T01:21:32.838Z,16.97
2018-03-26T01:23:58.852Z,16.97
2018-03-26T01:26:24.930Z,17.07
2018-03-26T01:28:50.957Z,18.80
2018-03-26T01:31:16.996Z,17.60
2018-03-26T01:33:43.048Z,17.97
2018-03-26T01:36:09.169Z,16.83
2018-03-26T01:38:35.192Z,18.27
2018-03-26T01:41:01.247Z,18.00
2018-03-26T01:43:27.250Z,16.60
2018-03-26T01:45:53.270Z,18.17
2018-03-26T01:48:19.282Z,19.27
2018-03-26T01:50:45.306Z,19.70
2018-03-26T01:53:11.310Z,18.50
2018-03-26T01:55:37.313Z,16.70
2018-03-26T01:58:03.392Z,17.60
2018-03-26T02:00:29.407Z,18.13
2018-03-26T02:02:55.446Z,17.60
2018-03-26T02:05:21.459Z,18.00
2018-03-26T02:07:47.499Z,17.47
2018-03-26T02:10:13.470Z,17.43
2018-03-26T02:12:39.550Z,18.37
2018-03-26T02:15:05.652Z,18.00
2018-03-26T02:17:31.720Z,17.70
2018-03-26T02:19:57.809Z,19.03
2018-03-26T02:22:23.839Z,19.43
2018-03-26T02:24:49.824Z,16.67
2018-03-26T02:27:15.879Z,20.93
2018-03-26T02:29:41.917Z,17.97
2018-03-26T02:32:07.950Z,18.70
2018-03-26T02:34:33.967Z,19.40
2018-03-26T02:37:00.013Z,18.60
2018-03-26T02:39:26.056Z,18.57
2018-03-26T02:41:52.038Z,18.10
2018-03-26T02:44:18.090Z,18.57
2018-03-26T02:46:44.100Z,18.57
2018-03-26T02:49:10.150Z,20.60
2018-03-26T02:51:36.242Z,18.47
2018-03-26T02:54:02.254Z,21.43
2018-03-26T02:56:28.274Z,18.07
2018-03-26T02:58:54.310Z,21.03
2018-03-26T03:01:20.341Z,20.43
2018-03-26T03:03:46.313Z,22.30
2018-03-26T03:06:12.334Z,21.27
2018-03-26T03:08:38.294Z,20.70
2018-03-26T03:11:04.286Z,21.23
2018-03-26T03:13:30.313Z,23.07
2018-03-26T03:15:56.317Z,21.50
2018-03-26T03:18:22.347Z,21.57
2018-03-26T03:20:48.403Z,21.83
2018-03-26T03:23:14.478Z,21.33
2018-03-26T03:25:40.481Z,19.70
2018-03-26T03:28:06.488Z,20.63
2018-03-26T03:30:32.542Z,20.00
2018-03-26T03:32:58.550Z,22.70
2018-03-26T03:35:24.536Z,22.00
2018-03-26T03:37:50.545Z,20.30
2018-03-26T03:40:16.588Z,19.27
2018-03-26T03:42:42.617Z,19.33
2018-03-26T03:45:08.654Z,18.53
2018-03-26T03:47:34.686Z,17.77
2018-03-26T03:50:00.758Z,19.13
2018-03-26T03:52:26.783Z,20.70
2018-03-26T03:54:52.821Z,17.83
2018-03-26T03:57:18.856Z,20.57
2018-03-26T03:59:44.857Z,19.27
2018-03-26T04:02:10.878Z,18.20
2018-03-26T04:04:36.841Z,17.67
2018-03-26T04:07:02.823Z,29.13
2018-03-26T04:09:28.876Z,22.23
2018-03-26T04:11:54.882Z,26.70
2018-03-26T04:14:20.902Z,25.07
2018-03-26T04:16:46.904Z,23.30
2018-03-26T04:19:12.923Z,24.57
2018-03-26T04:21:38.968Z,23.50
2018-03-26T04:24:04.957Z,22.30
2018-03-26T04:26:30.908Z,22.43
2018-03-26T04:28:56.949Z,22.67
2018-03-26T04:31:22.948Z,21.03
2018-03-26T04:33:49.002Z,21.60
2018-03-26T04:36:15.019Z,19.20
2018-03-26T04:38:40.961Z,21.77
2018-03-26T04:41:07.008Z,19.87
2018-03-26T04:43:32.958Z,19.93
2018-03-26T04:45:58.969Z,22.97
2018-03-26T04:48:25.074Z,22.10
2018-03-26T04:50:51.138Z,21.70
2018-03-26T04:53:17.162Z,22.40
2018-03-26T04:55:43.158Z,22.57
2018-03-26T04:58:09.223Z,21.50
2018-03-26T05:00:35.224Z,18.87
2018-03-26T05:03:01.257Z,20.90
2018-03-26T05:05:27.269Z,22.20
2018-03-26T05:07:53.301Z,25.27
2018-03-26T05:10:19.261Z,22.67
2018-03-26T05:12:45.265Z,21.10
2018-03-26T05:15:11.253Z,22.57
2018-03-26T05:17:37.319Z,23.80
2018-03-26T05:20:03.725Z,23.83
2018-03-26T05:22:29.726Z,23.93
2018-03-26T05:24:55.778Z,24.60
2018-03-26T05:27:21.746Z,22.03
2018-03-26T05:29:47.890Z,23.10
2018-03-26T05:32:13.861Z,22.87
2018-03-26T05:34:39.913Z,21.97
2018-03-26T05:37:05.946Z,21.20
2018-03-26T05:39:31.933Z,22.30
2018-03-26T05:41:57.931Z,25.10
2018-03-26T05:44:23.953Z,22.90
2018-03-26T05:46:49.985Z,26.47
2018-03-26T05:49:16.049Z,26.70
2018-03-26T05:51:42.145Z,25.20
2018-03-26T05:54:08.166Z,26.07
2018-03-26T05:56:34.178Z,27.20
2018-03-26T05:59:00.239Z,23.77
2018-03-26T06:01:26.245Z,24.67
2018-03-26T06:03:52.345Z,23.43
2018-03-26T06:06:18.337Z,23.23
2018-03-26T06:08:44.470Z,23.73
2018-03-26T06:11:10.441Z,25.03
2018-03-26T06:13:36.469Z,24.57
2018-03-26T06:16:02.508Z,24.70
2018-03-26T06:18:28.562Z,24.97
2018-03-26T06:20:54.617Z,24.73
2018-03-26T06:23:20.648Z,25.43
2018-03-26T06:25:46.748Z,25.47
2018-03-26T06:28:12.838Z,27.77
2018-03-26T06:30:38.933Z,26.00
2018-03-26T06:33:05.020Z,25.70
2018-03-26T06:35:31.088Z,28.00
2018-03-26T06:40:59.171Z,28.93
2018-03-26T06:43:25.198Z,29.30
2018-03-26T06:45:51.240Z,26.70
2018-03-26T06:48:17.209Z,27.80
2018-03-26T06:50:43.224Z,28.17
2018-03-26T06:53:09.250Z,29.50
2018-03-26T06:55:35.304Z,29.57
2018-03-26T06:58:01.340Z,29.17
2018-03-26T07:00:27.555Z,29.93
2018-03-26T07:02:53.612Z,29.10
2018-03-26T07:05:19.692Z,32.27
2018-03-26T07:07:45.805Z,33.50
2018-03-26T07:10:11.821Z,32.60
2018-03-26T07:12:37.863Z,32.20
2018-03-26T07:15:04.147Z,33.93
2018-03-26T07:17:30.142Z,33.17
2018-03-26T07:19:56.210Z,22.27
2018-03-26T07:22:22.231Z,34.07
2018-03-26T07:24:48.243Z,32.40
2018-03-26T07:27:14.220Z,35.13
2018-03-26T07:29:40.281Z,34.40
2018-03-26T07:32:06.329Z,32.20
2018-03-26T07:34:32.525Z,33.07
2018-03-26T07:36:58.590Z,34.43
2018-03-26T07:39:24.654Z,39.57
2018-03-26T07:41:50.714Z,38.70
2018-03-26T07:44:16.814Z,38.63
2018-03-26T07:46:42.844Z,37.40
2018-03-26T07:49:08.886Z,37.47
2018-03-26T07:51:34.906Z,37.10
2018-03-26T07:54:00.921Z,38.53
2018-03-26T07:56:26.969Z,38.27
2018-03-26T07:58:52.966Z,35.40
2018-03-26T08:01:19.016Z,34.37
2018-03-26T08:03:45.033Z,37.07
2018-03-26T08:06:11.065Z,37.50
2018-03-26T08:08:37.101Z,35.43
2018-03-26T08:11:03.225Z,36.57
2018-03-26T08:13:29.194Z,39.20
2018-03-26T08:15:55.191Z,39.47
2018-03-26T08:18:21.209Z,37.50
2018-03-26T08:20:47.238Z,36.80
2018-03-26T08:23:13.242Z,34.97
2018-03-26T08:25:39.276Z,35.20
2018-03-26T08:28:05.307Z,37.00
2018-03-26T08:30:31.334Z,37.77
2018-03-26T08:32:57.377Z,38.93
2018-03-26T08:35:23.432Z,34.97
2018-03-26T08:37:49.388Z,35.00
2018-03-26T08:40:15.389Z,37.70
2018-03-26T08:42:41.418Z,33.60
2018-03-26T08:45:07.458Z,34.30
2018-03-26T08:47:33.447Z,36.03
2018-03-26T08:49:59.594Z,35.20
2018-03-26T08:52:25.540Z,36.20
2018-03-26T08:54:51.580Z,36.70
2018-03-26T08:57:17.605Z,34.37
2018-03-26T08:59:43.582Z,33.13
2018-03-26T09:02:09.633Z,34.53
2018-03-26T09:04:35.656Z,34.97
2018-03-26T09:07:01.702Z,36.57
2018-03-26T09:09:27.716Z,38.27
2018-03-26T09:11:53.781Z,35.50
2018-03-26T09:14:19.765Z,36.90
2018-03-26T09:16:45.793Z,39.17
2018-03-26T09:19:11.806Z,37.40
2018-03-26T09:21:37.909Z,38.53
2018-03-26T09:24:04.015Z,37.93
2018-03-26T09:26:30.039Z,39.00
2018-03-26T09:28:56.085Z,37.20
2018-03-26T09:31:22.152Z,37.30
2018-03-26T09:33:48.201Z,40.27
2018-03-26T09:36:14.280Z,41.20
2018-03-26T09:38:40.302Z,37.10
2018-03-26T09:41:06.345Z,37.27
2018-03-26T09:43:32.374Z,37.40
2018-03-26T09:45:58.425Z,36.83
2018-03-26T09:48:24.422Z,37.70
2018-03-26T09:50:50.464Z,35.97
2018-03-26T09:53:16.560Z,39.97
2018-03-26T09:55:42.548Z,41.20
2018-03-26T09:58:08.521Z,39.90
2018-03-26T10:00:40.818Z,36.73
2018-03-26T10:03:06.848Z,39.93
2018-03-26T10:05:32.885Z,34.97
2018-03-26T10:07:58.872Z,32.20
2018-03-26T10:10:24.885Z,37.27
2018-03-26T10:12:50.921Z,32.80
2018-03-26T10:15:16.985Z,32.20
2018-03-26T10:17:43.057Z,32.90
2018-03-26T10:20:09.159Z,33.20
2018-03-26T10:22:35.228Z,32.70
2018-03-26T10:25:08.233Z,31.70
2018-03-26T10:30:07.080Z,33.10
2018-03-26T10:32:33.078Z,27.30
2018-03-26T10:34:59.109Z,25.63
2018-03-26T10:37:25.181Z,23.93
2018-03-26T10:39:51.198Z,23.73
2018-03-26T10:42:17.205Z,27.50
2018-03-26T10:44:43.224Z,24.60
2018-03-26T10:47:09.254Z,26.13
2018-03-26T10:49:35.330Z,26.53
2018-03-26T10:52:01.317Z,26.50
2018-03-26T10:54:27.519Z,21.77
2018-03-26T10:56:53.600Z,20.70
2018-03-26T10:59:19.638Z,21.80
2018-03-26T11:01:45.729Z,22.40
2018-03-26T11:04:11.784Z,21.60
2018-03-26T11:06:37.782Z,22.00
2018-03-26T11:09:03.777Z,22.13
2018-03-26T11:11:29.841Z,21.17
2018-03-26T11:13:55.866Z,23.73
2018-03-26T11:16:21.948Z,24.47
2018-03-26T11:18:48.089Z,22.30
2018-03-26T11:21:14.212Z,23.30
2018-03-26T11:23:40.244Z,23.70
2018-03-26T11:26:06.278Z,20.77
2018-03-26T11:28:32.281Z,21.93
2018-03-26T11:30:58.357Z,23.07
2018-03-26T11:33:24.386Z,21.40
2018-03-26T11:35:50.468Z,23.17
2018-03-26T11:38:16.558Z,20.60
2018-03-26T11:40:42.569Z,20.07
2018-03-26T11:43:09.142Z,21.83
2018-03-26T11:45:35.171Z,21.57
2018-03-26T11:48:01.183Z,21.07
2018-03-26T11:50:27.214Z,22.57
2018-03-26T11:52:53.241Z,23.43
2018-03-26T11:55:19.321Z,20.87
2018-03-26T11:57:45.346Z,22.97
2018-03-26T12:00:11.376Z,20.33
2018-03-26T12:02:37.393Z,23.97
2018-03-26T12:05:04.176Z,20.03
2018-03-26T12:07:30.174Z,21.70
2018-03-26T12:09:56.157Z,20.40
2018-03-26T12:12:22.181Z,20.87
2018-03-26T12:14:48.249Z,20.77
2018-03-26T12:17:14.275Z,20.27
2018-03-26T12:19:52.611Z,20.23
2018-03-26T12:22:18.645Z,20.97
2018-03-26T12:24:55.637Z,19.87
2018-03-26T12:27:21.717Z,19.00
2018-03-26T12:30:00.101Z,18.30
2018-03-26T12:32:26.183Z,19.30
2018-03-26T12:35:04.659Z,18.33
2018-03-26T12:37:30.715Z,18.57
2018-03-26T12:39:56.851Z,20.90
2018-03-26T12:42:22.927Z,20.43
2018-03-26T12:45:01.060Z,18.87
2018-03-26T12:47:27.085Z,18.90
2018-03-26T12:49:53.349Z,17.23
2018-03-26T12:52:31.522Z,19.17
2018-03-26T12:54:57.532Z,16.10
2018-03-26T12:57:35.779Z,16.83
2018-03-26T13:02:20.078Z,19.47
2018-03-26T13:04:46.124Z,16.80
2018-03-26T13:07:12.360Z,18.03
2018-03-26T13:09:38.466Z,18.30
2018-03-26T13:12:04.547Z,17.00
2018-03-26T13:14:30.598Z,16.60
2018-03-26T13:16:57.197Z,15.50
2018-03-26T13:19:23.243Z,17.20
2018-03-26T13:21:49.262Z,18.40
2018-03-26T13:24:15.302Z,16.20
2018-03-26T13:26:41.354Z,17.10
2018-03-26T13:29:07.407Z,14.67
2018-03-26T13:31:33.460Z,13.03
2018-03-26T13:33:59.491Z,14.57
2018-03-26T13:36:25.567Z,15.97
2018-03-26T13:38:51.626Z,15.47
2018-03-26T13:44:08.481Z,14.73
2018-03-26T13:49:47.382Z,17.27
2018-03-26T13:52:13.500Z,17.37
2018-03-26T13:54:39.544Z,18.23
2018-03-26T13:57:05.653Z,15.23
2018-03-26T13:59:31.652Z,15.73
2018-03-26T14:01:57.690Z,18.20
2018-03-26T14:04:23.692Z,17.10
2018-03-26T14:06:49.738Z,19.00
2018-03-26T14:09:27.896Z,16.67
2018-03-26T14:12:06.250Z,18.43
2018-03-26T14:14:44.406Z,18.13
2018-03-26T14:17:22.614Z,15.83
2018-03-26T14:19:48.684Z,18.87
2018-03-26T14:22:14.723Z,18.03
2018-03-26T14:24:40.766Z,18.73
2018-03-26T14:27:06.827Z,16.80
2018-03-26T14:29:32.904Z,18.93
2018-03-26T14:31:58.932Z,17.13
2018-03-26T14:34:24.990Z,16.87
2018-03-26T14:36:51.037Z,17.30
2018-03-26T14:39:17.066Z,18.80
2018-03-26T14:41:43.094Z,17.50
2018-03-26T14:44:09.169Z,16.50
2018-03-26T14:46:35.214Z,15.23
2018-03-26T14:49:01.304Z,16.90
2018-03-26T14:51:27.328Z,16.30
2018-03-26T14:53:53.434Z,15.03
2018-03-26T14:56:19.412Z,16.43
2018-03-26T14:58:45.451Z,16.70
2018-03-26T15:01:11.528Z,14.33
2018-03-26T15:03:37.571Z,16.00
2018-03-26T15:06:03.697Z,16.93
2018-03-26T15:08:29.751Z,16.03
2018-03-26T15:10:55.818Z,17.20
2018-03-26T15:13:21.846Z,17.07
2018-03-26T15:15:47.888Z,17.20
2018-03-26T15:18:13.952Z,15.80
2018-03-26T15:20:39.991Z,16.27
2018-03-26T15:23:06.110Z,17.80
2018-03-26T15:25:32.176Z,16.07
2018-03-26T15:27:58.397Z,18.83
2018-03-26T15:30:24.509Z,16.40
2018-03-26T15:32:50.506Z,16.93
2018-03-26T15:35:16.594Z,18.67
2018-03-26T15:37:42.666Z,17.70
2018-03-26T15:40:08.731Z,17.07
2018-03-26T15:42:34.773Z,17.90
2018-03-26T15:45:00.935Z,18.90
2018-03-26T15:47:26.990Z,18.20
2018-03-26T15:49:53.069Z,18.10
2018-03-26T15:52:19.121Z,17.53
2018-03-26T15:54:45.138Z,17.83
2018-03-26T15:57:11.157Z,18.60
2018-03-26T15:59:37.277Z,17.73
2018-03-26T16:02:03.134Z,17.37
2018-03-26T16:04:29.200Z,17.30
2018-03-26T16:06:55.347Z,18.53
2018-03-26T16:09:21.388Z,16.47
2018-03-26T16:11:47.411Z,18.63
2018-03-26T16:14:13.427Z,19.90
2018-03-26T16:16:39.468Z,17.13
2018-03-26T16:19:05.817Z,17.70
2018-03-26T16:21:31.852Z,18.77
2018-03-26T16:23:59.025Z,20.87
2018-03-26T16:26:25.294Z,20.67
2018-03-26T16:28:51.432Z,20.23
2018-03-26T16:31:17.446Z,19.50
2018-03-26T16:33:43.900Z,22.23
2018-03-26T16:36:09.924Z,19.70
2018-03-26T16:38:36.017Z,22.80
2018-03-26T16:41:02.152Z,22.57
2018-03-26T16:43:28.692Z,20.70
2018-03-26T16:45:54.764Z,20.87
2018-03-26T16:48:20.818Z,19.37
2018-03-26T16:50:46.899Z,22.80
2018-03-26T16:53:12.985Z,19.60
2018-03-26T16:55:39.026Z,20.93
2018-03-26T16:58:05.100Z,18.60
2018-03-26T17:00:31.562Z,22.27
2018-03-26T17:02:57.704Z,22.23
2018-03-26T17:05:23.764Z,19.27
2018-03-26T17:07:49.848Z,18.63
2018-03-26T17:10:15.913Z,21.73
2018-03-26T17:12:41.996Z,20.93
2018-03-26T17:15:08.029Z,22.17
2018-03-26T17:17:34.073Z,21.27
2018-03-26T17:20:00.157Z,21.60
2018-03-26T17:22:26.204Z,23.10
2018-03-26T17:24:52.235Z,22.57
2018-03-26T17:27:18.286Z,20.80
2018-03-26T17:29:44.318Z,22.37
2018-03-26T17:32:10.382Z,21.33
2018-03-26T17:34:36.473Z,21.30
2018-03-26T17:37:02.493Z,21.30
2018-03-26T17:39:28.573Z,23.70
2018-03-26T17:41:55.485Z,18.73
2018-03-26T17:44:21.606Z,21.73
2018-03-26T17:46:47.662Z,19.10
2018-03-26T17:49:13.706Z,19.87
2018-03-26T17:51:39.756Z,20.73
2018-03-26T17:54:05.857Z,19.83
2018-03-26T17:56:31.885Z,19.20
2018-03-26T17:58:57.968Z,19.17
2018-03-26T18:01:24.081Z,20.90
2018-03-26T18:03:50.154Z,19.53
2018-03-26T18:06:16.690Z,19.67
2018-03-26T18:08:42.760Z,18.93
2018-03-26T18:11:08.880Z,18.83
2018-03-26T18:13:35.092Z,19.60
2018-03-26T18:16:01.134Z,20.13
2018-03-26T18:18:27.145Z,19.53
2018-03-26T18:20:53.221Z,17.00
2018-03-26T18:23:19.259Z,20.30
2018-03-26T18:25:45.289Z,21.17
2018-03-26T18:28:11.384Z,18.43
2018-03-26T18:30:37.461Z,19.90
2018-03-26T18:33:03.477Z,20.57
2018-03-26T18:35:29.518Z,21.20
2018-03-26T18:37:55.579Z,19.30
2018-03-26T18:40:21.655Z,19.03
2018-03-26T18:42:47.693Z,22.17
2018-03-26T18:45:13.702Z,19.90
2018-03-26T18:47:39.789Z,20.23
2018-03-26T18:50:05.841Z,21.67
2018-03-26T18:52:31.905Z,20.73
2018-03-26T18:54:57.966Z,17.60
2018-03-26T18:57:24.266Z,20.63
2018-03-26T18:59:50.332Z,20.00
2018-03-26T19:02:16.420Z,21.20
2018-03-26T19:04:42.516Z,24.40
2018-03-26T19:07:08.732Z,30.10
2018-03-26T19:09:34.777Z,29.50
2018-03-26T19:12:00.841Z,28.07
2018-03-26T19:14:26.967Z,26.60
2018-03-26T19:16:53.112Z,23.60
2018-03-26T19:19:19.186Z,24.43
2018-03-26T19:21:45.260Z,25.50
2018-03-26T19:24:11.350Z,22.60
2018-03-26T19:26:37.437Z,24.73
2018-03-26T19:29:03.461Z,20.30
2018-03-26T19:31:29.542Z,21.73
2018-03-26T19:33:55.562Z,20.77
2018-03-26T19:36:21.633Z,22.07
2018-03-26T19:38:47.655Z,21.20
2018-03-26T19:41:13.756Z,22.20
2018-03-26T19:43:39.824Z,21.93
2018-03-26T19:46:05.945Z,20.43
2018-03-26T19:48:32.072Z,19.60
2018-03-26T19:50:58.193Z,20.90
2018-03-26T19:53:24.731Z,21.20
2018-03-26T19:55:50.747Z,19.60
2018-03-26T19:58:17.024Z,17.77
2018-03-26T20:00:48.691Z,20.57
2018-03-26T20:03:18.323Z,19.80
2018-03-26T20:05:44.432Z,19.87
2018-03-26T20:08:10.637Z,17.53
2018-03-26T20:10:36.745Z,20.53
2018-03-26T20:13:02.925Z,19.00
2018-03-26T20:15:29.261Z,18.23
2018-03-26T20:17:55.539Z,18.33
2018-03-26T20:20:21.744Z,18.37
2018-03-26T20:22:48.099Z,21.33
2018-03-26T20:25:14.174Z,20.93
2018-03-26T20:27:40.198Z,21.80
2018-03-26T20:30:06.240Z,21.90
2018-03-26T20:32:32.938Z,25.00
2018-03-26T20:34:59.054Z,21.83
2018-03-26T20:37:25.086Z,24.10
2018-03-26T20:39:51.286Z,22.17
2018-03-26T20:42:17.333Z,21.70
2018-03-26T20:44:43.350Z,20.57
2018-03-26T20:47:09.507Z,27.00
2018-03-26T20:49:35.488Z,24.30
2018-03-26T20:52:01.513Z,20.63
2018-03-26T20:54:27.555Z,17.80
2018-03-26T20:56:53.604Z,19.07
2018-03-26T20:59:19.675Z,19.87
2018-03-26T21:01:45.750Z,18.30
2018-03-26T21:04:11.803Z,19.10
2018-03-26T21:06:37.799Z,17.00
2018-03-26T21:09:03.815Z,18.60
2018-03-26T21:11:29.843Z,17.30
2018-03-26T21:13:56.363Z,17.60
2018-03-26T21:16:22.393Z,18.30
2018-03-26T21:18:48.431Z,15.47
2018-03-26T21:21:14.569Z,17.73
2018-03-26T21:23:40.714Z,18.83
2018-03-26T21:26:06.745Z,18.20
2018-03-26T21:28:32.825Z,17.07
2018-03-26T21:30:58.878Z,18.50
2018-03-26T21:33:24.920Z,16.70
2018-03-26T21:35:50.960Z,17.40
2018-03-26T21:38:17.076Z,19.00
2018-03-26T21:40:43.111Z,15.93
2018-03-26T21:43:09.186Z,17.40
2018-03-26T21:45:35.254Z,17.47
2018-03-26T21:48:01.304Z,19.77
2018-03-26T21:50:27.298Z,18.33
2018-03-26T21:52:53.347Z,17.03
2018-03-26T21:55:19.362Z,18.53
2018-03-26T21:57:45.414Z,18.40
2018-03-26T22:00:16.330Z,18.60
2018-03-26T22:02:42.402Z,22.07
2018-03-26T22:05:08.429Z,19.07
2018-03-26T22:07:34.497Z,17.93
2018-03-26T22:10:00.574Z,18.27
2018-03-26T22:12:26.580Z,18.20
2018-03-26T22:14:52.622Z,18.07
2018-03-26T22:17:18.691Z,19.77
2018-03-26T22:19:44.705Z,18.57
2018-03-26T22:22:11.344Z,18.60
2018-03-26T22:24:37.438Z,18.73
2018-03-26T22:27:03.491Z,18.03
2018-03-26T22:29:29.545Z,18.17
2018-03-26T22:31:55.574Z,19.60
2018-03-26T22:34:24.570Z,19.30
2018-03-26T22:36:50.801Z,18.53
2018-03-26T22:39:18.409Z,17.03
2018-03-26T22:41:44.616Z,18.53
2018-03-26T22:44:10.945Z,18.00
2018-03-26T22:56:23.059Z,17.27
2018-03-26T22:58:49.943Z,16.10
2018-03-26T23:01:16.138Z,18.47
2018-03-26T23:03:42.280Z,18.47
2018-03-26T23:06:08.740Z,17.00
2018-03-26T23:08:34.857Z,17.63
2018-03-26T23:11:01.091Z,17.33
2018-03-26T23:13:27.273Z,18.07
2018-03-26T23:15:53.424Z,18.57
2018-03-26T23:18:19.815Z,17.63
2018-03-26T23:20:46.222Z,18.97
2018-03-26T23:23:12.345Z,17.27
2018-03-26T23:25:38.514Z,19.50
2018-03-26T23:28:04.682Z,16.43
2018-03-26T23:30:30.865Z,17.50
2018-03-26T23:32:57.012Z,17.40
2018-03-26T23:35:23.172Z,17.27
2018-03-26T23:37:49.331Z,19.90
2018-03-26T23:40:15.452Z,20.80
2018-03-26T23:42:41.575Z,18.83
2018-03-26T23:45:07.704Z,18.33
2018-03-26T23:47:33.774Z,19.50
2018-03-26T23:49:59.885Z,16.43
2018-03-26T23:52:25.991Z,17.87
2018-03-26T23:54:52.054Z,17.80
2018-03-26T23:57:18.141Z,16.97
2018-03-26T23:59:44.244Z,17.57
